Time;durP1;ratioP1;P1;durP2;ratioP2;P2;SDS_P1;SDS_P2;PMS_P1;PMS_P2;Temp;Humidity;BMP_temperature;BMP_pressure;BME280_temperature;BME280_humidity;BME280_pressure;Samples;Min_cycle;Max_cycle;Signal;HPM_P1;HPM_P2
2022/09/08 00:01:22;;;;;;;0.85;0.22;;;;;;;29.67;25.03;101328.47;4988315;28;20042;-78
2022/09/08 00:03:51;;;;;;;2.97;0.22;;;;;;;29.60;25.03;101333.19;5012090;28;20073;-76
2022/09/08 00:06:21;;;;;;;1.23;0.30;;;;;;;29.59;25.37;101342.09;5006233;28;20419;-79
2022/09/08 00:08:55;;;;;;;0.47;0.25;;;;;;;29.53;25.65;101347.69;5006080;28;20487;-79
2022/09/08 00:11:26;;;;;;;1.83;0.38;;;;;;;29.43;26.04;101353.38;5013713;28;20082;-77
2022/09/08 00:13:55;;;;;;;0.90;0.30;;;;;;;29.30;26.32;101357.47;5000734;28;20085;-77
2022/09/08 00:16:23;;;;;;;1.50;0.40;;;;;;;29.14;26.60;101351.88;5012256;28;20407;-78
2022/09/08 00:18:53;;;;;;;1.20;0.30;;;;;;;29.02;27.67;101344.28;5011316;28;20462;-77
2022/09/08 00:21:24;;;;;;;0.95;0.30;;;;;;;28.95;27.28;101334.81;5013533;28;20046;-82
2022/09/08 00:23:53;;;;;;;0.40;0.30;;;;;;;28.83;27.22;101339.66;5021324;28;20085;-77
2022/09/08 00:26:22;;;;;;;3.78;0.70;;;;;;;28.72;27.16;101338.34;5010810;28;20507;-81
2022/09/08 00:28:51;;;;;;;1.50;0.30;;;;;;;28.64;27.86;101348.41;5009120;28;20514;-81
2022/09/08 00:31:20;;;;;;;4.88;0.50;;;;;;;28.53;27.47;101344.34;5009875;28;20056;-78
2022/09/08 00:33:49;;;;;;;1.02;0.40;;;;;;;28.37;27.85;101345.78;5004070;28;20053;-82
2022/09/08 00:36:18;;;;;;;2.00;0.40;;;;;;;28.23;27.97;101340.09;5000202;28;20151;-76
2022/09/08 00:38:52;;;;;;;0.85;0.30;;;;;;;28.12;27.99;101338.66;5008630;28;20061;-79
2022/09/08 00:41:21;;;;;;;2.53;0.40;;;;;;;28.06;27.92;101327.34;5014049;28;20077;-77
2022/09/08 00:43:58;;;;;;;0.47;0.22;;;;;;;27.96;28.72;101313.50;5003039;28;20058;-80
2022/09/08 00:46:33;;;;;;;2.40;1.05;;;;;;;27.87;28.88;101300.50;5001693;28;20065;-82
2022/09/08 00:49:08;;;;;;;2.72;0.55;;;;;;;27.83;29.06;101282.88;5006769;28;20108;-78
2022/09/08 00:51:41;;;;;;;2.25;0.50;;;;;;;27.74;29.16;101278.75;5000917;28;20049;-82
2022/09/08 00:54:12;;;;;;;2.53;0.50;;;;;;;27.64;29.57;101311.88;5003898;28;20068;-77
2022/09/08 00:56:44;;;;;;;2.28;0.47;;;;;;;27.54;29.40;101335.25;5004040;28;20050;-77
2022/09/08 00:59:15;;;;;;;2.20;0.60;;;;;;;27.47;29.96;101339.03;5007309;28;20535;-78
2022/09/08 01:01:50;;;;;;;2.38;0.60;;;;;;;27.43;29.90;101327.59;5011068;28;20439;-73
2022/09/08 01:04:20;;;;;;;2.72;0.40;;;;;;;27.41;30.57;101326.78;5009059;28;20049;-75
2022/09/08 01:12:46;;;;;;;4.65;0.90;;;;;;;27.33;31.06;101366.91;5010413;28;20181;-76
2022/09/08 01:15:18;;;;;;;1.67;0.45;;;;;;;27.30;30.74;101359.00;5008135;28;20050;-80
2022/09/08 01:17:48;;;;;;;2.67;0.70;;;;;;;27.27;30.86;101358.25;5007740;28;20152;-79
2022/09/08 01:20:18;;;;;;;2.97;0.57;;;;;;;27.24;31.37;101356.53;5010086;28;20487;-79
2022/09/08 01:23:04;;;;;;;3.42;0.75;;;;;;;27.22;31.13;101350.41;5016112;28;20541;-76
2022/09/08 01:25:54;;;;;;;3.30;0.60;;;;;;;27.23;30.86;101341.50;5006366;28;20605;-76
2022/09/08 01:28:33;;;;;;;1.20;0.50;;;;;;;27.24;30.96;101332.63;5010523;28;20503;-78
2022/09/08 01:31:04;;;;;;;2.20;0.55;;;;;;;27.27;30.44;101345.81;5009179;28;20041;-77
2022/09/08 01:33:33;;;;;;;1.98;0.60;;;;;;;27.32;30.16;101351.84;5010099;28;20069;-79
2022/09/08 01:36:07;;;;;;;1.92;0.60;;;;;;;27.38;30.12;101355.25;5008247;28;20093;-79
2022/09/08 01:38:36;;;;;;;3.70;0.60;;;;;;;27.43;29.93;101358.63;5007746;28;20042;-80
2022/09/08 01:41:05;;;;;;;1.65;0.70;;;;;;;27.42;30.97;101359.53;5018701;28;20046;-76
2022/09/08 01:43:35;;;;;;;1.45;0.70;;;;;;;27.39;30.67;101364.94;5005361;28;20060;-80
2022/09/08 01:46:04;;;;;;;1.63;0.57;;;;;;;27.35;30.15;101370.38;5004312;28;20044;-78
2022/09/08 01:48:33;;;;;;;2.75;0.80;;;;;;;27.30;30.02;101364.31;5008923;28;20058;-80
2022/09/08 01:51:02;;;;;;;2.20;0.57;;;;;;;27.25;29.94;101368.03;5001410;28;20054;-76
2022/09/08 01:53:32;;;;;;;5.07;0.68;;;;;;;27.16;30.10;101363.84;5006627;28;20666;-78
2022/09/08 01:56:01;;;;;;;2.20;0.57;;;;;;;27.06;29.99;101375.66;5008168;28;20412;-81
2022/09/08 01:58:30;;;;;;;1.75;0.60;;;;;;;26.98;30.36;101373.22;5006691;28;20049;-80
2022/09/08 02:01:01;;;;;;;1.58;0.82;;;;;;;26.90;30.91;101369.91;5011632;28;20060;-82
2022/09/08 02:03:36;;;;;;;1.77;0.70;;;;;;;26.83;31.25;101363.91;4992953;28;20101;-81
2022/09/08 02:06:06;;;;;;;1.55;0.55;;;;;;;26.77;31.11;101363.22;5006062;28;20091;-81
2022/09/08 02:08:34;;;;;;;3.42;0.93;;;;;;;26.68;31.43;101370.50;5005722;28;20551;-82
2022/09/08 02:11:03;;;;;;;2.42;0.60;;;;;;;26.58;32.03;101368.19;5014069;28;20050;-82
2022/09/08 02:13:32;;;;;;;2.15;0.50;;;;;;;26.45;32.15;101372.91;5012788;28;21211;-80
2022/09/08 02:16:06;;;;;;;2.65;0.57;;;;;;;26.28;32.38;101376.00;5003977;28;20045;-81
2022/09/08 02:18:35;;;;;;;3.50;1.00;;;;;;;26.12;31.65;101367.56;5007265;28;20156;-79
2022/09/08 02:21:11;;;;;;;1.88;0.63;;;;;;;25.99;31.45;101382.91;5009333;28;20115;-80
2022/09/08 02:23:42;;;;;;;1.40;0.60;;;;;;;25.86;31.92;101378.78;5003178;28;20651;-80
2022/09/08 02:26:16;;;;;;;2.97;0.80;;;;;;;25.70;31.97;101383.56;5009238;28;20052;-80
2022/09/08 02:28:46;;;;;;;1.75;0.57;;;;;;;25.57;32.69;101384.78;5017320;28;20081;-79
2022/09/08 02:31:16;;;;;;;2.15;0.80;;;;;;;25.44;32.75;101377.09;5006075;28;20057;-81
2022/09/08 02:33:45;;;;;;;2.88;0.60;;;;;;;25.37;31.25;101390.53;5003284;28;20054;-80
2022/09/08 02:36:14;;;;;;;3.17;0.55;;;;;;;25.29;31.76;101383.63;5010241;28;20608;-77
2022/09/08 02:38:43;;;;;;;1.42;0.52;;;;;;;25.23;31.89;101389.03;5002032;28;20050;-78
2022/09/08 02:41:12;;;;;;;3.28;0.90;;;;;;;25.14;31.84;101383.91;5001284;28;20459;-78
2022/09/08 02:43:40;;;;;;;3.80;0.90;;;;;;;25.03;30.73;101394.72;5004222;28;20112;-80
2022/09/08 02:46:10;;;;;;;2.35;0.60;;;;;;;24.92;29.79;101395.84;5009924;28;20081;-76
2022/09/08 02:48:41;;;;;;;1.90;0.82;;;;;;;24.80;30.56;101395.16;5004756;28;20053;-82
2022/09/08 02:51:11;;;;;;;1.63;0.80;;;;;;;24.70;29.07;101401.56;5011093;28;20097;-79
2022/09/08 02:53:41;;;;;;;3.38;0.98;;;;;;;24.61;28.99;101407.88;5004947;28;20046;-81
2022/09/08 02:56:10;;;;;;;2.33;0.82;;;;;;;24.52;28.87;101409.84;5020685;28;20484;-78
2022/09/08 02:58:40;;;;;;;2.08;0.60;;;;;;;24.43;28.28;101405.53;5012549;28;20046;-80
2022/09/08 03:01:22;;;;;;;3.38;0.77;;;;;;;24.34;28.35;101401.28;5011583;28;20486;-79
2022/09/08 03:03:52;;;;;;;2.67;0.90;;;;;;;24.29;29.70;101403.13;4990972;28;20055;-79
2022/09/08 03:06:21;;;;;;;3.22;0.88;;;;;;;24.21;30.17;101402.38;4986403;28;20042;-79
2022/09/08 03:08:50;;;;;;;2.28;0.82;;;;;;;24.10;30.60;101412.25;4996109;28;20408;-79
2022/09/08 03:11:18;;;;;;;2.42;0.60;;;;;;;24.00;27.19;101404.47;4990039;28;20061;-80
2022/09/08 03:13:47;;;;;;;1.92;0.73;;;;;;;23.95;28.99;101414.25;4987867;28;20069;-81
2022/09/08 03:16:16;;;;;;;5.20;0.70;;;;;;;23.90;28.72;101408.19;4991585;28;20047;-81
2022/09/08 03:18:45;;;;;;;2.78;0.73;;;;;;;23.83;27.75;101414.47;4988708;28;20407;-82
2022/09/08 03:21:16;;;;;;;3.42;0.80;;;;;;;23.78;28.74;101421.59;4992322;28;20515;-83
2022/09/08 03:23:45;;;;;;;2.70;0.70;;;;;;;23.73;28.39;101421.63;4976988;28;20137;-81
2022/09/08 03:26:15;;;;;;;4.10;0.60;;;;;;;23.65;27.44;101419.97;4982287;28;20058;-81
2022/09/08 03:28:45;;;;;;;1.58;0.63;;;;;;;23.55;28.37;101417.47;4990196;28;20082;-81
2022/09/08 03:31:16;;;;;;;2.78;0.57;;;;;;;23.48;27.71;101418.44;4999181;28;20081;-81
2022/09/08 03:33:46;;;;;;;2.72;0.63;;;;;;;23.40;27.08;101425.59;4987115;28;20519;-81
2022/09/08 03:36:18;;;;;;;2.15;0.63;;;;;;;23.32;28.34;101433.63;4985303;28;20054;-80
2022/09/08 03:38:47;;;;;;;2.25;0.60;;;;;;;23.25;27.84;101441.59;4986367;28;20047;-82
2022/09/08 03:41:16;;;;;;;4.03;0.68;;;;;;;23.18;27.16;101441.72;4992195;28;20082;-81
2022/09/08 03:43:46;;;;;;;4.45;0.80;;;;;;;23.10;28.47;101451.47;4989362;28;20054;-81
2022/09/08 03:46:15;;;;;;;1.35;0.57;;;;;;;22.99;27.03;101451.56;4986036;28;20047;-82
2022/09/08 03:48:45;;;;;;;3.10;0.60;;;;;;;22.93;30.36;101458.66;4991851;28;20054;-81
2022/09/08 03:51:17;;;;;;;3.13;0.65;;;;;;;22.86;29.00;101464.88;4985519;28;20053;-78
2022/09/08 03:53:47;;;;;;;2.55;0.73;;;;;;;22.79;27.29;101471.97;4990303;28;20386;-82
2022/09/08 03:56:15;;;;;;;1.65;0.60;;;;;;;22.72;24.49;101476.47;4998636;28;20593;-80
2022/09/08 03:58:46;;;;;;;4.43;0.70;;;;;;;22.70;26.86;101475.59;4989075;28;20050;-79
2022/09/08 04:01:17;;;;;;;3.20;0.70;;;;;;;22.63;27.43;101478.28;4991113;28;20145;-84
2022/09/08 04:03:46;;;;;;;2.55;0.60;;;;;;;22.53;26.46;101485.41;5009876;28;20052;-82
2022/09/08 04:06:17;;;;;;;2.75;0.90;;;;;;;22.45;27.38;101489.88;5011060;28;20046;-79
2022/09/08 04:08:46;;;;;;;1.40;0.50;;;;;;;22.36;25.61;101491.72;5010688;28;20048;-82
2022/09/08 04:11:15;;;;;;;4.15;0.50;;;;;;;22.27;24.67;101496.19;5018548;28;20525;-82
2022/09/08 04:13:43;;;;;;;3.15;0.50;;;;;;;22.21;25.48;101502.34;5000121;28;20064;-82
2022/09/08 04:16:12;;;;;;;1.60;0.70;;;;;;;22.17;28.16;101505.84;5018527;28;20053;-80
2022/09/08 04:18:41;;;;;;;1.73;0.50;;;;;;;22.10;24.55;101499.75;5021852;28;20069;-83
2022/09/08 04:21:10;;;;;;;1.08;0.40;;;;;;;22.03;24.71;101505.06;5013363;28;20060;-83
2022/09/08 04:23:41;;;;;;;4.15;0.60;;;;;;;21.99;24.56;101506.88;5007936;28;20451;-83
2022/09/08 04:26:13;;;;;;;1.00;0.40;;;;;;;21.93;23.36;101502.50;5011268;28;20054;-83
2022/09/08 04:28:42;;;;;;;1.98;0.50;;;;;;;21.85;23.32;101501.69;5010709;28;20419;-83
2022/09/08 04:31:14;;;;;;;1.60;0.40;;;;;;;21.78;23.84;101506.97;5018601;28;20652;-83
2022/09/08 04:33:43;;;;;;;2.63;0.63;;;;;;;21.69;23.58;101503.50;5009815;28;20084;-81
2022/09/08 04:36:13;;;;;;;3.65;0.57;;;;;;;21.63;23.91;101500.03;5019935;28;20502;-84
2022/09/08 04:38:44;;;;;;;3.15;0.57;;;;;;;21.56;23.64;101506.22;5016181;28;20081;-80
2022/09/08 04:41:14;;;;;;;1.30;0.55;;;;;;;21.49;23.27;101503.59;5009994;28;20129;-79
2022/09/08 04:43:43;;;;;;;1.52;0.50;;;;;;;21.47;24.75;101501.84;5009097;28;20522;-76
2022/09/08 04:46:14;;;;;;;1.77;0.60;;;;;;;21.43;24.91;101506.22;5007633;28;20412;-75
2022/09/08 04:48:44;;;;;;;2.60;0.50;;;;;;;21.39;24.74;101520.25;5006279;28;20045;-77
2022/09/08 04:51:14;;;;;;;3.00;0.68;;;;;;;21.34;23.63;101508.88;5005442;28;20418;-80
2022/09/08 04:53:45;;;;;;;1.30;0.50;;;;;;;21.28;24.65;101516.75;5004474;28;20054;-83
2022/09/08 04:56:15;;;;;;;1.15;0.40;;;;;;;21.21;25.71;101520.28;5013520;28;20056;-80
2022/09/08 04:58:46;;;;;;;1.25;0.43;;;;;;;21.15;28.10;101517.69;5004003;28;20428;-80
2022/09/08 05:01:18;;;;;;;2.67;0.82;;;;;;;21.06;26.18;101524.72;5002310;28;20507;-78
2022/09/08 05:03:47;;;;;;;3.47;1.40;;;;;;;20.99;29.77;101524.75;5002734;28;20065;-84
2022/09/08 05:06:17;;;;;;;3.13;0.57;;;;;;;20.90;30.48;101530.88;5013252;28;20054;-83
2022/09/08 05:08:49;;;;;;;2.95;0.52;;;;;;;20.80;28.21;101529.13;5010348;28;20120;-83
2022/09/08 05:11:20;;;;;;;2.72;0.57;;;;;;;20.67;25.72;101521.25;5008813;28;20427;-80
2022/09/08 05:13:49;;;;;;;2.42;0.70;;;;;;;20.63;29.92;101537.88;5011341;28;20479;-78
2022/09/08 05:16:20;;;;;;;3.42;0.60;;;;;;;20.57;27.35;101543.16;5009488;28;20527;-80
2022/09/08 05:18:50;;;;;;;2.67;0.75;;;;;;;20.49;26.36;101535.22;5007176;28;20506;-75
2022/09/08 05:21:19;;;;;;;4.38;0.70;;;;;;;20.43;26.04;101539.59;5007659;28;20587;-74
2022/09/08 05:23:50;;;;;;;3.75;0.50;;;;;;;20.37;26.09;101540.47;5007274;28;20054;-74
2022/09/08 05:26:20;;;;;;;2.72;0.40;;;;;;;20.33;27.16;101549.22;5010873;28;20426;-74
2022/09/08 05:28:49;;;;;;;1.60;0.50;;;;;;;20.23;25.42;101543.06;5006758;28;20094;-75
2022/09/08 05:31:19;;;;;;;2.75;0.50;;;;;;;20.17;26.34;101548.31;5010944;28;20064;-73
2022/09/08 05:33:48;;;;;;;1.00;0.40;;;;;;;20.14;25.61;101547.44;5002978;28;20082;-74
2022/09/08 05:36:19;;;;;;;2.50;0.50;;;;;;;20.08;25.85;101543.91;5009880;28;20045;-74
2022/09/08 05:38:49;;;;;;;1.95;0.38;;;;;;;20.04;25.14;101551.78;5005920;28;20057;-73
2022/09/08 05:41:18;;;;;;;2.40;0.40;;;;;;;19.97;25.37;101550.00;5007594;28;20510;-73
2022/09/08 05:43:47;;;;;;;1.83;0.32;;;;;;;19.88;24.74;101549.13;5006162;28;20109;-75
2022/09/08 05:46:15;;;;;;;2.65;0.60;;;;;;;19.83;25.49;101563.06;5015769;28;20518;-74
2022/09/08 05:48:44;;;;;;;1.55;0.50;;;;;;;19.76;24.85;101566.56;5003862;28;20464;-74
2022/09/08 05:51:14;;;;;;;3.60;0.63;;;;;;;19.71;25.44;101569.16;5009388;28;20507;-75
2022/09/08 05:53:43;;;;;;;2.92;0.85;;;;;;;19.66;25.91;101570.84;5005420;28;20077;-74
2022/09/08 05:56:13;;;;;;;1.15;0.50;;;;;;;19.62;26.17;101576.97;5008675;28;20049;-75
2022/09/08 05:58:42;;;;;;;1.40;0.50;;;;;;;19.56;25.47;101572.56;5003433;28;20113;-76
2022/09/08 06:01:13;;;;;;;2.90;0.52;;;;;;;19.52;24.72;101562.03;5006198;28;20053;-74
2022/09/08 06:03:41;;;;;;;2.30;0.40;;;;;;;19.49;24.97;101562.88;5006692;28;20133;-74
2022/09/08 06:06:12;;;;;;;1.48;0.43;;;;;;;19.45;24.30;101554.13;4999078;28;20128;-74
2022/09/08 06:08:42;;;;;;;1.92;0.47;;;;;;;19.45;24.72;101559.38;5000438;28;20115;-74
2022/09/08 06:11:13;;;;;;;2.65;0.40;;;;;;;19.45;23.98;101567.25;5006866;28;20049;-74
2022/09/08 06:13:42;;;;;;;2.40;0.40;;;;;;;19.48;25.41;101566.38;5009790;28;20041;-74
2022/09/08 06:16:13;;;;;;;2.72;0.50;;;;;;;19.44;25.45;101565.47;5023592;28;20050;-74
2022/09/08 06:18:43;;;;;;;4.57;0.50;;;;;;;19.41;25.09;101560.22;5008385;28;20451;-74
2022/09/08 06:21:14;;;;;;;2.60;0.43;;;;;;;19.35;24.35;101570.66;5008345;28;20091;-74
2022/09/08 06:23:42;;;;;;;2.20;0.80;;;;;;;19.34;24.64;101562.81;5009555;28;20137;-74
2022/09/08 06:26:37;;;;;;;1.73;0.43;;;;;;;19.35;27.04;101570.66;5009542;28;20090;-74
2022/09/08 06:29:12;;;;;;;2.83;0.50;;;;;;;19.31;26.56;101578.50;5012452;28;20041;-74
2022/09/08 06:31:47;;;;;;;4.13;0.63;;;;;;;19.25;26.30;101580.22;5006524;28;20503;-75
2022/09/08 06:34:20;;;;;;;2.72;0.47;;;;;;;19.21;24.66;101582.81;5000707;28;20050;-73
2022/09/08 06:36:53;;;;;;;1.20;0.50;;;;;;;19.20;24.04;101581.09;5010813;28;20109;-73
2022/09/08 06:39:25;;;;;;;4.55;0.57;;;;;;;19.21;23.89;101588.06;5009494;28;20045;-73
2022/09/08 06:42:01;;;;;;;0.95;0.45;;;;;;;19.22;23.77;101576.72;5007359;28;20081;-73
2022/09/08 06:44:35;;;;;;;2.70;0.40;;;;;;;19.24;23.63;101574.97;5012848;28;20160;-73
2022/09/08 06:47:03;;;;;;;1.88;0.50;;;;;;;19.24;23.67;101582.84;5008311;28;20046;-73
2022/09/08 06:49:32;;;;;;;2.03;0.50;;;;;;;19.23;23.87;101576.72;5012007;28;20046;-73
2022/09/08 06:52:13;;;;;;;0.82;0.40;;;;;;;19.24;24.30;101572.34;5010653;28;20057;-72
2022/09/08 06:54:49;;;;;;;5.30;0.50;;;;;;;19.23;23.71;101576.72;4996020;28;20078;-73
2022/09/08 06:57:33;;;;;;;1.73;0.60;;;;;;;19.21;24.62;101573.19;5003913;28;20160;-72
2022/09/08 07:00:12;;;;;;;1.67;0.50;;;;;;;19.20;24.22;101570.59;4997360;28;20080;-73
2022/09/08 07:02:58;;;;;;;2.00;0.68;;;;;;;19.16;24.10;101574.06;5009598;28;20673;-73
2022/09/08 07:05:55;;;;;;;2.33;0.50;;;;;;;19.10;23.46;101564.38;5005537;28;20402;-73
2022/09/08 07:08:42;;;;;;;0.75;0.40;;;;;;;19.09;23.96;101574.88;5010013;28;20054;-79
2022/09/08 07:11:22;;;;;;;2.55;0.60;;;;;;;19.08;24.80;101562.63;5011624;28;20506;-75
2022/09/08 07:14:02;;;;;;;1.05;0.40;;;;;;;19.04;25.29;101570.47;5012374;28;20590;-75
2022/09/08 07:16:36;;;;;;;2.78;0.70;;;;;;;19.00;25.72;101563.44;5008470;28;20632;-75
2022/09/08 07:19:10;;;;;;;3.60;0.55;;;;;;;18.89;24.29;101570.34;5011496;28;20408;-75
2022/09/08 07:21:51;;;;;;;0.82;0.40;;;;;;;18.88;25.84;101562.47;5009880;28;20054;-74
2022/09/08 07:24:23;;;;;;;2.13;0.50;;;;;;;18.85;25.69;101576.41;5011092;28;20128;-74
2022/09/08 07:26:55;;;;;;;3.22;0.40;;;;;;;18.84;25.04;101580.78;5021234;28;20112;-74
2022/09/08 07:29:29;;;;;;;1.55;0.50;;;;;;;18.84;25.90;101593.03;5003194;28;20150;-73
2022/09/08 07:32:00;;;;;;;2.63;0.52;;;;;;;18.79;26.19;101595.59;5008811;28;20058;-73
2022/09/08 07:34:30;;;;;;;1.25;0.50;;;;;;;18.75;27.36;101598.16;5009913;28;20089;-75
2022/09/08 07:37:07;;;;;;;2.20;0.43;;;;;;;18.67;28.02;101605.06;5005376;28;20056;-75
2022/09/08 07:39:41;;;;;;;1.90;0.50;;;;;;;18.59;28.54;101616.34;5010818;28;20057;-76
2022/09/08 07:42:16;;;;;;;3.03;0.68;;;;;;;18.54;29.69;101615.44;5010157;28;20663;-76
2022/09/08 07:44:47;;;;;;;2.80;0.50;;;;;;;18.48;28.76;101615.34;5010762;28;20130;-75
2022/09/08 07:47:40;;;;;;;1.25;0.43;;;;;;;18.42;29.01;101615.31;5006517;28;20583;-75
2022/09/08 07:50:21;;;;;;;6.45;0.47;;;;;;;18.36;29.87;101615.22;5017649;28;20053;-74
2022/09/08 07:52:57;;;;;;;1.48;0.43;;;;;;;18.24;28.67;101620.34;5009069;28;20531;-75
2022/09/08 07:55:34;;;;;;;5.07;0.47;;;;;;;18.18;28.18;101627.25;5005650;28;20057;-75
2022/09/08 07:58:16;;;;;;;3.20;0.63;;;;;;;18.16;28.28;101629.00;5011444;28;20053;-77
2022/09/08 08:00:54;;;;;;;1.95;0.63;;;;;;;18.02;27.78;101632.28;5010873;28;20558;-74
2022/09/08 08:03:45;;;;;;;2.28;0.63;;;;;;;18.02;27.52;101650.63;5018637;28;20566;-76
2022/09/08 08:06:19;;;;;;;1.42;0.50;;;;;;;17.99;27.96;101640.97;5003236;28;20794;-75
2022/09/08 08:09:02;;;;;;;2.72;0.63;;;;;;;17.96;28.29;101640.97;5001364;28;20042;-76
2022/09/08 08:11:40;;;;;;;2.28;0.32;;;;;;;17.93;29.72;101648.75;5020733;28;20053;-76
2022/09/08 08:14:17;;;;;;;3.10;0.70;;;;;;;17.90;29.97;101646.09;5012912;28;20414;-76
2022/09/08 08:17:02;;;;;;;1.65;0.40;;;;;;;17.82;29.55;101646.00;5009722;28;20049;-75
2022/09/08 08:19:53;;;;;;;1.80;0.40;;;;;;;17.73;30.04;101654.56;5018377;28;20132;-76
2022/09/08 08:22:34;;;;;;;2.40;0.57;;;;;;;17.63;31.16;101652.66;4994938;28;20551;-75
2022/09/08 08:25:13;;;;;;;3.50;0.60;;;;;;;17.56;30.50;101653.44;4997735;28;20049;-76
2022/09/08 08:27:50;;;;;;;5.75;0.68;;;;;;;17.47;31.06;101648.06;5006427;28;20057;-75
2022/09/08 08:30:20;;;;;;;5.13;0.60;;;;;;;17.37;30.73;101655.75;5005064;28;20078;-75
2022/09/08 08:32:57;;;;;;;1.75;0.50;;;;;;;17.34;31.41;101662.66;4995456;28;20044;-76
2022/09/08 08:35:33;;;;;;;1.48;0.32;;;;;;;17.20;32.97;101654.59;5009362;28;21275;-77
2022/09/08 08:38:04;;;;;;;3.35;0.40;;;;;;;17.11;33.03;101660.56;5010759;28;20109;-74
2022/09/08 08:40:39;;;;;;;1.90;0.40;;;;;;;17.04;33.00;101663.03;5001018;28;20058;-74
2022/09/08 08:43:26;;;;;;;3.38;0.68;;;;;;;16.93;33.12;101657.66;5007216;28;20042;-75
2022/09/08 08:46:10;;;;;;;2.60;0.77;;;;;;;16.88;33.52;101662.78;5003317;28;20050;-76
2022/09/08 08:48:57;;;;;;;0.85;0.50;;;;;;;16.80;35.37;101659.13;5006205;28;20135;-76
2022/09/08 08:51:51;;;;;;;1.77;0.60;;;;;;;16.70;36.98;101667.66;4997429;28;20715;-74
2022/09/08 08:54:45;;;;;;;3.10;0.55;;;;;;;16.58;34.87;101667.38;5009161;28;20042;-74
2022/09/08 08:57:35;;;;;;;3.50;0.70;;;;;;;16.53;36.18;101676.00;5003755;28;20519;-75
2022/09/08 09:00:19;;;;;;;1.67;0.60;;;;;;;16.49;35.80;101676.81;5010587;28;20128;-76
2022/09/08 09:03:24;;;;;;;6.50;0.93;;;;;;;16.43;35.92;101676.69;5009311;28;20059;-75
2022/09/08 09:06:30;;;;;;;3.65;1.00;;;;;;;16.33;36.17;101674.72;5007111;28;20053;-72
2022/09/08 09:09:41;;;;;;;2.65;0.73;;;;;;;16.26;37.07;101684.19;4987980;28;20054;-76
2022/09/08 09:12:37;;;;;;;2.53;0.50;;;;;;;16.12;39.18;101681.25;4975122;28;20055;-74
2022/09/08 09:15:33;;;;;;;1.65;0.30;;;;;;;15.99;38.16;101680.97;4962386;28;20082;-74
2022/09/08 09:18:27;;;;;;;1.95;0.50;;;;;;;15.86;38.38;101674.59;4996712;28;20042;-74
2022/09/08 09:21:00;;;;;;;1.38;0.50;;;;;;;15.84;38.10;101679.78;5007183;28;20052;-75
2022/09/08 09:23:40;;;;;;;1.65;0.40;;;;;;;15.83;38.62;101680.66;5008356;28;20157;-76
2022/09/08 09:26:20;;;;;;;3.40;0.73;;;;;;;15.78;38.93;101673.53;5014351;28;20733;-76
2022/09/08 09:29:11;;;;;;;6.00;1.05;;;;;;;15.72;38.89;101669.06;5009558;28;20132;-76
2022/09/08 09:32:30;;;;;;;3.90;0.90;;;;;;;15.80;39.17;101674.47;5006599;28;20616;-76
2022/09/08 09:35:34;;;;;;;2.53;0.50;;;;;;;15.82;39.04;101664.94;4966790;28;20050;-76
2022/09/08 09:38:35;;;;;;;2.97;0.68;;;;;;;15.82;38.32;101665.81;5001985;28;20411;-77
2022/09/08 09:41:24;;;;;;;1.27;0.32;;;;;;;15.76;39.20;101670.91;5004476;28;20041;-76
2022/09/08 09:44:24;;;;;;;2.35;0.47;;;;;;;15.72;41.28;101679.50;5005970;28;20517;-76
2022/09/08 09:47:42;;;;;;;2.78;0.50;;;;;;;15.61;40.95;101676.59;5007128;28;20504;-74
2022/09/08 09:50:37;;;;;;;1.23;0.40;;;;;;;15.59;42.46;101683.50;4962365;28;20106;-75
2022/09/08 09:53:18;;;;;;;2.92;0.70;;;;;;;15.59;41.73;101687.84;5007534;28;20045;-77
2022/09/08 09:56:08;;;;;;;1.52;0.70;;;;;;;15.54;41.17;101689.47;5004659;28;20684;-76
2022/09/08 09:59:10;;;;;;;2.58;0.47;;;;;;;15.54;40.59;101687.75;5010943;28;20058;-77
2022/09/08 10:01:55;;;;;;;1.67;0.50;;;;;;;15.57;40.98;101694.75;4997889;28;20042;-77
2022/09/08 10:05:09;;;;;;;0.77;0.45;;;;;;;15.55;40.23;101702.53;5005604;28;20749;-77
2022/09/08 10:08:07;;;;;;;3.85;0.73;;;;;;;15.52;40.77;101692.03;4995952;28;20054;-76
2022/09/08 10:10:57;;;;;;;1.35;0.47;;;;;;;15.51;40.59;101695.50;4997561;28;20058;-76
2022/09/08 10:14:07;;;;;;;3.55;0.73;;;;;;;15.47;41.02;101693.66;5016286;28;20133;-77
2022/09/08 10:17:27;;;;;;;2.22;0.63;;;;;;;15.41;41.57;101694.38;4990030;28;20064;-76
2022/09/08 10:20:28;;;;;;;2.17;0.60;;;;;;;15.31;41.73;101701.97;5011998;28;20501;-76
2022/09/08 10:23:32;;;;;;;3.28;0.52;;;;;;;15.23;42.35;101694.84;5004286;28;20398;-76
2022/09/08 10:26:30;;;;;;;4.65;0.60;;;;;;;15.21;42.46;101688.69;5001396;28;20472;-77
2022/09/08 10:29:30;;;;;;;0.40;0.40;;;;;;;15.18;42.96;101686.00;4992245;28;20094;-76
2022/09/08 10:32:34;;;;;;;3.75;0.60;;;;;;;15.17;42.82;101696.41;5007132;28;20053;-77
2022/09/08 10:35:29;;;;;;;2.22;0.38;;;;;;;15.11;42.35;101694.50;4997373;28;20071;-77
2022/09/08 10:38:19;;;;;;;3.83;0.82;;;;;;;15.08;42.90;101697.91;5005731;28;20491;-77
2022/09/08 10:41:07;;;;;;;2.65;0.68;;;;;;;15.06;43.24;101699.59;5006174;28;20132;-77
2022/09/08 10:44:03;;;;;;;0.60;0.38;;;;;;;15.05;44.23;101699.56;5000459;28;20053;-77
2022/09/08 10:46:57;;;;;;;1.17;0.20;;;;;;;15.00;44.48;101696.84;4998626;28;20041;-76
2022/09/08 10:49:59;;;;;;;4.10;0.75;;;;;;;14.97;44.24;101690.66;4968242;28;20046;-76
2022/09/08 10:52:50;;;;;;;2.35;0.60;;;;;;;14.96;44.24;101699.34;5004552;28;20049;-76
2022/09/08 10:55:43;;;;;;;6.45;1.10;;;;;;;14.91;44.72;101690.47;5009774;28;20045;-76
2022/09/08 10:59:01;;;;;;;3.72;0.50;;;;;;;14.84;44.25;101690.34;4996856;28;20439;-76
2022/09/08 11:02:12;;;;;;;4.68;0.85;;;;;;;14.82;44.58;101699.84;4957307;28;20045;-76
2022/09/08 11:05:16;;;;;;;3.75;0.88;;;;;;;14.79;44.85;101693.66;4978178;28;20058;-76
2022/09/08 11:08:15;;;;;;;4.30;0.70;;;;;;;14.73;45.04;101691.78;4996915;28;20042;-76
2022/09/08 11:11:03;;;;;;;5.70;0.75;;;;;;;14.62;44.57;101674.97;4977693;28;20433;-76
2022/09/08 11:13:34;;;;;;;2.22;0.50;;;;;;;14.64;44.83;101691.53;4986601;28;20416;-75
2022/09/08 11:16:32;;;;;;;3.47;0.77;;;;;;;14.59;45.03;101693.09;4985222;28;20047;-76
2022/09/08 11:19:36;;;;;;;1.33;0.63;;;;;;;14.55;45.48;101680.84;4978814;28;20057;-76
2022/09/08 11:22:34;;;;;;;2.63;0.50;;;;;;;14.51;45.38;101689.38;4971002;28;20039;-76
2022/09/08 11:25:25;;;;;;;1.63;0.68;;;;;;;14.44;46.19;101683.97;4983342;28;20056;-77
2022/09/08 11:28:06;;;;;;;3.03;0.65;;;;;;;14.30;44.43;101690.50;4990498;28;20542;-77
2022/09/08 11:30:42;;;;;;;1.30;0.65;;;;;;;14.21;43.54;101692.84;4984645;28;20390;-77
2022/09/08 11:33:23;;;;;;;4.00;0.38;;;;;;;14.10;43.46;101694.25;4992668;28;20487;-77
2022/09/08 11:36:05;;;;;;;3.70;0.55;;;;;;;14.01;43.06;101697.44;4989122;28;20054;-76
2022/09/08 11:39:07;;;;;;;1.33;0.40;;;;;;;13.92;43.33;101698.03;4987090;28;20046;-77
2022/09/08 11:42:09;;;;;;;1.17;0.50;;;;;;;13.77;43.10;101703.66;4960487;28;20085;-75
2022/09/08 11:44:48;;;;;;;2.70;0.50;;;;;;;13.65;43.13;101692.84;4984297;28;20644;-75
2022/09/08 11:47:36;;;;;;;4.65;0.50;;;;;;;13.62;43.85;101693.66;4986817;28;20177;-75
2022/09/08 11:50:36;;;;;;;1.05;0.82;;;;;;;13.55;44.12;101676.09;4979764;28;20505;-75
2022/09/08 11:53:43;;;;;;;3.83;0.73;;;;;;;13.59;43.96;101683.16;4986051;28;20053;-75
2022/09/08 11:56:28;;;;;;;1.50;0.50;;;;;;;13.54;43.72;101689.94;4985877;28;20496;-77
2022/09/08 11:59:14;;;;;;;0.75;0.40;;;;;;;13.50;44.14;101693.25;4998116;28;20047;-77
2022/09/08 12:01:56;;;;;;;3.05;0.63;;;;;;;13.41;44.70;101691.25;4990417;28;20129;-76
2022/09/08 12:04:43;;;;;;;2.58;0.55;;;;;;;13.32;44.25;101687.47;5000855;28;20053;-76
2022/09/08 12:07:26;;;;;;;1.45;0.40;;;;;;;13.26;45.03;101700.22;5008266;28;20137;-76
2022/09/08 12:10:33;;;;;;;0.50;0.30;;;;;;;13.18;45.04;101690.44;5012397;28;20205;-77
2022/09/08 12:13:12;;;;;;;1.75;0.45;;;;;;;13.08;45.91;101698.78;4997136;28;20521;-76
2022/09/08 12:16:10;;;;;;;2.38;0.30;;;;;;;13.06;46.06;101705.63;4993355;28;20676;-76
2022/09/08 12:18:54;;;;;;;4.00;0.88;;;;;;;13.02;46.04;101708.94;5009128;28;20078;-77
2022/09/08 12:21:43;;;;;;;1.23;0.50;;;;;;;12.98;47.41;101707.94;5000266;28;20042;-77